sensor_id;sensor_type;location;lat;lon;timestamp;pressure;altitude;pressure_sealevel;temperature;humidity
32761;BME280;19126;47.472;7.850;2023-05-15T00:00:16;96321.22;;;9.87;15.73
32761;BME280;19126;47.472;7.850;2023-05-15T00:02:45;96326.63;;;9.86;14.51
32761;BME280;19126;47.472;7.850;2023-05-15T00:05:15;96331.25;;;9.83;14.77
32761;BME280;19126;47.472;7.850;2023-05-15T00:07:42;96324.22;;;9.84;15.32
32761;BME280;19126;47.472;7.850;2023-05-15T00:10:09;96329.16;;;9.79;14.81
32761;BME280;19126;47.472;7.850;2023-05-15T00:12:37;96325.91;;;9.77;15.33
32761;BME280;19126;47.472;7.850;2023-05-15T00:15:06;96328.53;;;9.77;14.55
32761;BME280;19126;47.472;7.850;2023-05-15T00:17:33;96326.91;;;9.76;15.30
32761;BME280;19126;47.472;7.850;2023-05-15T00:20:00;96328.97;;;9.80;14.39
32761;BME280;19126;47.472;7.850;2023-05-15T00:22:31;96322.72;;;9.81;15.68
32761;BME280;19126;47.472;7.850;2023-05-15T00:24:58;96320.81;;;9.75;15.43
32761;BME280;19126;47.472;7.850;2023-05-15T00:27:25;96328.69;;;9.75;14.45
32761;BME280;19126;47.472;7.850;2023-05-15T00:29:52;96330.66;;;9.73;14.73
32761;BME280;19126;47.472;7.850;2023-05-15T00:32:20;96331.66;;;9.72;14.02
32761;BME280;19126;47.472;7.850;2023-05-15T00:34:47;96332.94;;;9.76;14.55
32761;BME280;19126;47.472;7.850;2023-05-15T00:37:14;96330.31;;;9.76;15.06
32761;BME280;19126;47.472;7.850;2023-05-15T00:39:43;96330.03;;;9.71;15.17
32761;BME280;19126;47.472;7.850;2023-05-15T00:42:11;96339.19;;;9.75;14.83
32761;BME280;19126;47.472;7.850;2023-05-15T00:44:39;96329.69;;;9.74;14.21
32761;BME280;19126;47.472;7.850;2023-05-15T00:47:10;96328.88;;;9.74;14.22
32761;BME280;19126;47.472;7.850;2023-05-15T00:49:37;96321.66;;;9.76;14.58
32761;BME280;19126;47.472;7.850;2023-05-15T00:52:06;96322.28;;;9.78;13.97
32761;BME280;19126;47.472;7.850;2023-05-15T00:54:33;96310.25;;;9.83;14.11
32761;BME280;19126;47.472;7.850;2023-05-15T00:57:04;96308.19;;;9.79;14.68
32761;BME280;19126;47.472;7.850;2023-05-15T00:59:32;96312.25;;;9.81;13.80
32761;BME280;19126;47.472;7.850;2023-05-15T01:01:59;96315.69;;;9.82;14.44
32761;BME280;19126;47.472;7.850;2023-05-15T01:04:26;96317.69;;;9.80;14.27
32761;BME280;19126;47.472;7.850;2023-05-15T01:06:54;96316.84;;;9.79;14.33
32761;BME280;19126;47.472;7.850;2023-05-15T01:09:23;96315.41;;;9.77;14.29
32761;BME280;19126;47.472;7.850;2023-05-15T01:11:54;96312.94;;;9.75;13.42
32761;BME280;19126;47.472;7.850;2023-05-15T01:14:25;96313.78;;;9.76;13.92
32761;BME280;19126;47.472;7.850;2023-05-15T01:16:52;96312.16;;;9.75;13.68
32761;BME280;19126;47.472;7.850;2023-05-15T01:19:19;96311.16;;;9.76;13.79
32761;BME280;19126;47.472;7.850;2023-05-15T01:28:30;96303.00;;;9.71;14.00
32761;BME280;19126;47.472;7.850;2023-05-15T01:31:09;96301.03;;;9.73;13.38
32761;BME280;19126;47.472;7.850;2023-05-15T01:33:44;96296.56;;;9.73;13.05
32761;BME280;19126;47.472;7.850;2023-05-15T01:36:18;96304.78;;;9.70;14.14
32761;BME280;19126;47.472;7.850;2023-05-15T01:38:51;96302.53;;;9.67;13.39
32761;BME280;19126;47.472;7.850;2023-05-15T01:41:25;96294.22;;;9.63;13.05
32761;BME280;19126;47.472;7.850;2023-05-15T01:44:01;96293.72;;;9.60;13.29
32761;BME280;19126;47.472;7.850;2023-05-15T01:46:31;96294.72;;;9.59;13.57
32761;BME280;19126;47.472;7.850;2023-05-15T01:49:01;96300.31;;;9.56;13.31
32761;BME280;19126;47.472;7.850;2023-05-15T01:51:30;96293.97;;;9.50;13.09
32761;BME280;19126;47.472;7.850;2023-05-15T01:53:58;96301.38;;;9.46;12.56
32761;BME280;19126;47.472;7.850;2023-05-15T01:56:26;96295.66;;;9.43;12.99
32761;BME280;19126;47.472;7.850;2023-05-15T01:58:56;96305.53;;;9.41;12.71
32761;BME280;19126;47.472;7.850;2023-05-15T02:01:25;96302.75;;;9.34;13.49
32761;BME280;19126;47.472;7.850;2023-05-15T02:03:54;96301.66;;;9.28;13.65
32761;BME280;19126;47.472;7.850;2023-05-15T02:06:22;96299.22;;;9.27;14.14
32761;BME280;19126;47.472;7.850;2023-05-15T02:08:50;96302.19;;;9.23;12.84
32761;BME280;19126;47.472;7.850;2023-05-15T02:11:19;96294.47;;;9.22;13.72
32761;BME280;19126;47.472;7.850;2023-05-15T02:13:46;96294.81;;;9.19;13.88
32761;BME280;19126;47.472;7.850;2023-05-15T02:16:16;96287.66;;;9.13;13.47
32761;BME280;19126;47.472;7.850;2023-05-15T02:18:43;96286.22;;;9.10;13.68
32761;BME280;19126;47.472;7.850;2023-05-15T02:21:11;96278.84;;;9.05;13.16
32761;BME280;19126;47.472;7.850;2023-05-15T02:23:39;96275.47;;;8.97;14.05
32761;BME280;19126;47.472;7.850;2023-05-15T02:26:19;96274.69;;;8.88;14.98
32761;BME280;19126;47.472;7.850;2023-05-15T02:28:56;96272.75;;;8.82;14.19
32761;BME280;19126;47.472;7.850;2023-05-15T02:31:39;96271.31;;;8.79;14.82
32761;BME280;19126;47.472;7.850;2023-05-15T02:34:16;96280.81;;;8.80;14.93
32761;BME280;19126;47.472;7.850;2023-05-15T02:36:46;96282.63;;;8.71;15.39
32761;BME280;19126;47.472;7.850;2023-05-15T02:39:15;96276.44;;;8.64;16.32
32761;BME280;19126;47.472;7.850;2023-05-15T02:41:44;96287.25;;;8.61;15.92
32761;BME280;19126;47.472;7.850;2023-05-15T02:44:13;96286.78;;;8.57;16.76
32761;BME280;19126;47.472;7.850;2023-05-15T02:46:42;96298.75;;;8.52;16.15
32761;BME280;19126;47.472;7.850;2023-05-15T02:49:11;96289.75;;;8.46;16.89
32761;BME280;19126;47.472;7.850;2023-05-15T02:51:38;96293.50;;;8.43;16.83
32761;BME280;19126;47.472;7.850;2023-05-15T02:54:05;96293.03;;;8.40;16.76
32761;BME280;19126;47.472;7.850;2023-05-15T02:56:34;96290.25;;;8.33;16.74
32761;BME280;19126;47.472;7.850;2023-05-15T02:59:02;96295.50;;;8.33;16.72
32761;BME280;19126;47.472;7.850;2023-05-15T03:01:29;96296.47;;;8.32;16.90
32761;BME280;19126;47.472;7.850;2023-05-15T03:03:58;96297.66;;;8.29;17.91
32761;BME280;19126;47.472;7.850;2023-05-15T03:06:25;96293.41;;;8.28;16.35
32761;BME280;19126;47.472;7.850;2023-05-15T03:08:52;96293.06;;;8.31;17.04
32761;BME280;19126;47.472;7.850;2023-05-15T03:11:19;96297.63;;;8.38;17.64
32761;BME280;19126;47.472;7.850;2023-05-15T03:13:47;96288.47;;;8.33;16.53
32761;BME280;19126;47.472;7.850;2023-05-15T03:16:14;96288.47;;;8.33;16.17
32761;BME280;19126;47.472;7.850;2023-05-15T03:18:41;96296.78;;;8.37;15.67
32761;BME280;19126;47.472;7.850;2023-05-15T03:21:10;96290.75;;;8.36;16.20
32761;BME280;19126;47.472;7.850;2023-05-15T03:23:37;96291.56;;;8.37;15.95
32761;BME280;19126;47.472;7.850;2023-05-15T03:26:04;96300.25;;;8.38;16.65
32761;BME280;19126;47.472;7.850;2023-05-15T03:28:32;96291.22;;;8.40;14.79
32761;BME280;19126;47.472;7.850;2023-05-15T03:30:59;96303.50;;;8.40;16.27
32761;BME280;19126;47.472;7.850;2023-05-15T03:33:26;96306.78;;;8.42;14.53
32761;BME280;19126;47.472;7.850;2023-05-15T03:35:53;96298.94;;;8.42;15.71
32761;BME280;19126;47.472;7.850;2023-05-15T03:38:22;96301.22;;;8.45;14.57
32761;BME280;19126;47.472;7.850;2023-05-15T03:40:49;96301.22;;;8.53;14.38
32761;BME280;19126;47.472;7.850;2023-05-15T03:43:17;96304.81;;;8.52;14.98
32761;BME280;19126;47.472;7.850;2023-05-15T03:45:44;96298.09;;;8.49;15.37
32761;BME280;19126;47.472;7.850;2023-05-15T03:48:11;96298.41;;;8.55;14.80
32761;BME280;19126;47.472;7.850;2023-05-15T03:50:39;96291.53;;;8.54;15.27
32761;BME280;19126;47.472;7.850;2023-05-15T03:53:06;96294.16;;;8.54;14.10
32761;BME280;19126;47.472;7.850;2023-05-15T03:55:35;96287.13;;;8.54;13.85
32761;BME280;19126;47.472;7.850;2023-05-15T03:58:02;96290.41;;;8.56;13.69
32761;BME280;19126;47.472;7.850;2023-05-15T04:00:30;96289.88;;;8.61;13.18
32761;BME280;19126;47.472;7.850;2023-05-15T04:02:58;96289.69;;;8.71;14.34
32761;BME280;19126;47.472;7.850;2023-05-15T04:05:25;96285.91;;;8.73;12.98
32761;BME280;19126;47.472;7.850;2023-05-15T04:07:52;96289.47;;;8.80;13.48
32761;BME280;19126;47.472;7.850;2023-05-15T04:10:20;96285.00;;;8.89;12.88
32761;BME280;19126;47.472;7.850;2023-05-15T04:12:48;96289.38;;;8.97;14.04
32761;BME280;19126;47.472;7.850;2023-05-15T04:15:18;96286.47;;;8.92;13.67
32761;BME280;19126;47.472;7.850;2023-05-15T04:17:48;96297.13;;;8.90;13.85
32761;BME280;19126;47.472;7.850;2023-05-15T04:20:18;96304.34;;;8.88;13.59
32761;BME280;19126;47.472;7.850;2023-05-15T04:22:45;96297.75;;;8.92;13.24
32761;BME280;19126;47.472;7.850;2023-05-15T04:25:13;96306.28;;;8.94;13.21
32761;BME280;19126;47.472;7.850;2023-05-15T04:27:41;96306.28;;;8.94;14.16
32761;BME280;19126;47.472;7.850;2023-05-15T04:30:12;96297.88;;;8.99;12.99
32761;BME280;19126;47.472;7.850;2023-05-15T04:32:40;96299.69;;;8.99;13.77
32761;BME280;19126;47.472;7.850;2023-05-15T04:35:09;96306.91;;;8.97;13.58
32761;BME280;19126;47.472;7.850;2023-05-15T04:37:37;96302.66;;;8.96;13.47
32761;BME280;19126;47.472;7.850;2023-05-15T04:40:06;96303.66;;;8.94;13.16
32761;BME280;19126;47.472;7.850;2023-05-15T04:42:34;96306.56;;;9.00;13.23
32761;BME280;19126;47.472;7.850;2023-05-15T04:45:02;96304.28;;;8.97;13.52
32761;BME280;19126;47.472;7.850;2023-05-15T04:47:32;96304.94;;;8.99;13.76
32761;BME280;19126;47.472;7.850;2023-05-15T04:49:59;96304.59;;;9.02;13.22
32761;BME280;19126;47.472;7.850;2023-05-15T04:52:27;96304.38;;;9.12;12.88
32761;BME280;19126;47.472;7.850;2023-05-15T04:54:54;96304.53;;;9.10;12.98
32761;BME280;19126;47.472;7.850;2023-05-15T04:57:22;96308.81;;;9.11;13.76
32761;BME280;19126;47.472;7.850;2023-05-15T04:59:50;96315.47;;;9.14;12.52
32761;BME280;19126;47.472;7.850;2023-05-15T05:02:19;96316.78;;;9.18;13.00
32761;BME280;19126;47.472;7.850;2023-05-15T05:04:49;96319.06;;;9.21;12.83
32761;BME280;19126;47.472;7.850;2023-05-15T05:07:17;96314.28;;;9.24;12.76
32761;BME280;19126;47.472;7.850;2023-05-15T05:09:44;96324.44;;;9.28;12.17
32761;BME280;19126;47.472;7.850;2023-05-15T05:12:12;96327.34;;;9.33;13.12
32761;BME280;19126;47.472;7.850;2023-05-15T05:14:39;96323.03;;;9.40;13.43
32761;BME280;19126;47.472;7.850;2023-05-15T05:17:07;96331.03;;;9.47;12.48
32761;BME280;19126;47.472;7.850;2023-05-15T05:19:34;96330.22;;;9.46;12.95
32761;BME280;19126;47.472;7.850;2023-05-15T05:22:03;96331.69;;;9.49;12.50
32761;BME280;19126;47.472;7.850;2023-05-15T05:24:33;96332.31;;;9.51;12.52
32761;BME280;19126;47.472;7.850;2023-05-15T05:27:02;96333.91;;;9.60;13.69
32761;BME280;19126;47.472;7.850;2023-05-15T05:29:30;96336.97;;;9.64;13.52
32761;BME280;19126;47.472;7.850;2023-05-15T05:31:58;96334.00;;;9.67;13.21
32761;BME280;19126;47.472;7.850;2023-05-15T05:34:26;96335.28;;;9.71;12.92
32761;BME280;19126;47.472;7.850;2023-05-15T05:36:53;96331.03;;;9.70;13.94
32761;BME280;19126;47.472;7.850;2023-05-15T05:39:22;96335.75;;;9.75;13.94
32761;BME280;19126;47.472;7.850;2023-05-15T05:41:49;96335.22;;;9.79;13.71
32761;BME280;19126;47.472;7.850;2023-05-15T05:44:16;96337.78;;;9.88;13.66
32761;BME280;19126;47.472;7.850;2023-05-15T05:46:44;96324.94;;;9.93;14.66
32761;BME280;19126;47.472;7.850;2023-05-15T05:49:11;96325.69;;;10.02;14.38
32761;BME280;19126;47.472;7.850;2023-05-15T05:51:38;96328.13;;;10.03;14.46
32761;BME280;19126;47.472;7.850;2023-05-15T05:54:05;96322.53;;;10.06;14.80
32761;BME280;19126;47.472;7.850;2023-05-15T05:56:34;96316.91;;;10.09;15.10
32761;BME280;19126;47.472;7.850;2023-05-15T05:59:02;96317.03;;;10.16;15.48
32761;BME280;19126;47.472;7.850;2023-05-15T06:01:31;96322.38;;;10.23;15.58
32761;BME280;19126;47.472;7.850;2023-05-15T06:03:58;96326.72;;;10.31;15.99
32761;BME280;19126;47.472;7.850;2023-05-15T06:06:26;96320.13;;;10.35;15.70
32761;BME280;19126;47.472;7.850;2023-05-15T06:08:53;96319.44;;;10.41;16.65
32761;BME280;19126;47.472;7.850;2023-05-15T06:11:21;96320.50;;;10.47;16.97
32761;BME280;19126;47.472;7.850;2023-05-15T06:13:50;96323.03;;;10.55;17.47
32761;BME280;19126;47.472;7.850;2023-05-15T06:16:17;96319.25;;;10.58;18.77
32761;BME280;19126;47.472;7.850;2023-05-15T06:18:44;96319.44;;;10.56;20.58
32761;BME280;19126;47.472;7.850;2023-05-15T06:21:11;96316.91;;;10.63;22.52
32761;BME280;19126;47.472;7.850;2023-05-15T06:23:39;96322.16;;;10.63;27.26
32761;BME280;19126;47.472;7.850;2023-05-15T06:26:06;96323.34;;;10.60;30.79
32761;BME280;19126;47.472;7.850;2023-05-15T06:28:33;96324.41;;;10.66;33.03
32761;BME280;19126;47.472;7.850;2023-05-15T06:31:02;96321.78;;;10.66;35.89
32761;BME280;19126;47.472;7.850;2023-05-15T06:33:30;96321.44;;;10.69;37.53
32761;BME280;19126;47.472;7.850;2023-05-15T06:35:57;96323.22;;;10.83;37.82
32761;BME280;19126;47.472;7.850;2023-05-15T06:38:24;96331.31;;;10.82;40.08
32761;BME280;19126;47.472;7.850;2023-05-15T06:40:51;96329.38;;;10.91;40.66
32761;BME280;19126;47.472;7.850;2023-05-15T06:43:19;96333.72;;;10.98;43.02
32761;BME280;19126;47.472;7.850;2023-05-15T06:45:48;96331.38;;;11.04;48.07
32761;BME280;19126;47.472;7.850;2023-05-15T06:48:16;96333.63;;;11.07;52.06
32761;BME280;19126;47.472;7.850;2023-05-15T06:50:44;96337.16;;;11.14;55.87
32761;BME280;19126;47.472;7.850;2023-05-15T06:53:11;96330.53;;;11.18;59.47
32761;BME280;19126;47.472;7.850;2023-05-15T06:55:38;96331.19;;;11.27;61.73
32761;BME280;19126;47.472;7.850;2023-05-15T06:58:06;96332.53;;;11.38;64.07
32761;BME280;19126;47.472;7.850;2023-05-15T07:00:34;96340.56;;;11.51;63.65
32761;BME280;19126;47.472;7.850;2023-05-15T07:03:03;96338.56;;;11.53;64.80
32761;BME280;19126;47.472;7.850;2023-05-15T07:05:32;96344.88;;;11.59;68.70
32761;BME280;19126;47.472;7.850;2023-05-15T07:07:59;96342.13;;;11.67;71.84
32761;BME280;19126;47.472;7.850;2023-05-15T07:10:27;96346.38;;;11.68;74.87
32761;BME280;19126;47.472;7.850;2023-05-15T07:12:54;96341.13;;;11.68;76.31
32761;BME280;19126;47.472;7.850;2023-05-15T07:15:21;96338.81;;;11.80;76.90
32761;BME280;19126;47.472;7.850;2023-05-15T07:17:49;96339.81;;;11.79;82.55
32761;BME280;19126;47.472;7.850;2023-05-15T07:20:16;96339.69;;;11.87;86.00
32761;BME280;19126;47.472;7.850;2023-05-15T07:22:45;96341.75;;;11.92;88.92
32761;BME280;19126;47.472;7.850;2023-05-15T07:25:12;96340.28;;;12.05;92.35
32761;BME280;19126;47.472;7.850;2023-05-15T07:27:39;96340.69;;;12.08;96.51
32761;BME280;19126;47.472;7.850;2023-05-15T07:30:08;96347.59;;;12.09;96.37
32761;BME280;19126;47.472;7.850;2023-05-15T07:32:36;96343.81;;;12.19;94.61
32761;BME280;19126;47.472;7.850;2023-05-15T07:35:04;96342.72;;;12.35;91.20
32761;BME280;19126;47.472;7.850;2023-05-15T07:37:31;96347.88;;;12.50;90.54
32761;BME280;19126;47.472;7.850;2023-05-15T07:40:00;96337.78;;;12.53;94.45
32761;BME280;19126;47.472;7.850;2023-05-15T07:42:27;96345.47;;;12.55;100.00
32761;BME280;19126;47.472;7.850;2023-05-15T07:44:54;96340.50;;;12.67;100.00
32761;BME280;19126;47.472;7.850;2023-05-15T07:47:21;96351.69;;;12.75;100.00
32761;BME280;19126;47.472;7.850;2023-05-15T07:49:49;96342.53;;;12.71;100.00
32761;BME280;19126;47.472;7.850;2023-05-15T07:52:16;96348.63;;;12.72;100.00
32761;BME280;19126;47.472;7.850;2023-05-15T07:54:43;96340.34;;;12.82;100.00
32761;BME280;19126;47.472;7.850;2023-05-15T07:57:12;96338.72;;;12.81;100.00
32761;BME280;19126;47.472;7.850;2023-05-15T07:59:40;96341.19;;;12.82;100.00
32761;BME280;19126;47.472;7.850;2023-05-15T08:02:07;96338.78;;;12.87;100.00
32761;BME280;19126;47.472;7.850;2023-05-15T08:04:35;96340.41;;;12.95;100.00
32761;BME280;19126;47.472;7.850;2023-05-15T08:07:02;96335.97;;;12.96;100.00
32761;BME280;19126;47.472;7.850;2023-05-15T08:09:30;96344.06;;;12.94;100.00
32761;BME280;19126;47.472;7.850;2023-05-15T08:12:15;96342.03;;;12.96;100.00
32761;BME280;19126;47.472;7.850;2023-05-15T08:14:48;96341.19;;;12.89;100.00
32761;BME280;19126;47.472;7.850;2023-05-15T08:17:15;96335.59;;;12.99;100.00
32761;BME280;19126;47.472;7.850;2023-05-15T08:19:43;96337.59;;;13.03;100.00
32761;BME280;19126;47.472;7.850;2023-05-15T08:22:11;96347.97;;;13.05;100.00
32761;BME280;19126;47.472;7.850;2023-05-15T08:24:38;96352.25;;;13.13;100.00
32761;BME280;19126;47.472;7.850;2023-05-15T08:27:06;96349.63;;;13.13;100.00
32761;BME280;19126;47.472;7.850;2023-05-15T08:29:35;96358.31;;;13.00;100.00
32761;BME280;19126;47.472;7.850;2023-05-15T08:32:03;96345.06;;;12.93;100.00
32761;BME280;19126;47.472;7.850;2023-05-15T08:34:31;96347.91;;;12.92;100.00
32761;BME280;19126;47.472;7.850;2023-05-15T08:36:58;96343.44;;;12.85;100.00
32761;BME280;19126;47.472;7.850;2023-05-15T08:39:26;96351.13;;;12.87;100.00
32761;BME280;19126;47.472;7.850;2023-05-15T08:41:59;96347.25;;;12.83;100.00
32761;BME280;19126;47.472;7.850;2023-05-15T08:44:30;96347.69;;;12.86;100.00
32761;BME280;19126;47.472;7.850;2023-05-15T08:46:59;96347.09;;;12.91;100.00
32761;BME280;19126;47.472;7.850;2023-05-15T08:49:38;96345.69;;;12.88;100.00
32761;BME280;19126;47.472;7.850;2023-05-15T08:52:11;96335.75;;;12.97;100.00
32761;BME280;19126;47.472;7.850;2023-05-15T08:54:39;96331.31;;;13.04;100.00
32761;BME280;19126;47.472;7.850;2023-05-15T08:57:08;96336.22;;;13.08;100.00
32761;BME280;19126;47.472;7.850;2023-05-15T08:59:37;96335.41;;;13.14;100.00
32761;BME280;19126;47.472;7.850;2023-05-15T09:02:06;96334.06;;;13.25;100.00
32761;BME280;19126;47.472;7.850;2023-05-15T09:04:33;96324.38;;;13.39;100.00
32761;BME280;19126;47.472;7.850;2023-05-15T09:07:00;96324.59;;;13.44;100.00
32761;BME280;19126;47.472;7.850;2023-05-15T09:09:30;96321.59;;;13.67;100.00
32761;BME280;19126;47.472;7.850;2023-05-15T09:11:59;96317.34;;;13.86;100.00
32761;BME280;19126;47.472;7.850;2023-05-15T09:14:27;96311.66;;;13.96;100.00
32761;BME280;19126;47.472;7.850;2023-05-15T09:16:54;96307.56;;;14.34;100.00
32761;BME280;19126;47.472;7.850;2023-05-15T09:19:23;96311.53;;;14.90;100.00
32761;BME280;19126;47.472;7.850;2023-05-15T09:21:50;96310.53;;;15.62;100.00
32761;BME280;19126;47.472;7.850;2023-05-15T09:24:20;96307.31;;;15.92;100.00
32761;BME280;19126;47.472;7.850;2023-05-15T09:27:01;96304.63;;;16.43;100.00
32761;BME280;19126;47.472;7.850;2023-05-15T09:29:32;96301.25;;;16.92;100.00
32761;BME280;19126;47.472;7.850;2023-05-15T09:32:02;96303.34;;;17.39;99.28
32761;BME280;19126;47.472;7.850;2023-05-15T09:34:33;96305.88;;;17.88;98.71
32761;BME280;19126;47.472;7.850;2023-05-15T09:37:03;96294.09;;;17.72;91.88
32761;BME280;19126;47.472;7.850;2023-05-15T09:39:31;96297.22;;;17.69;96.63
32761;BME280;19126;47.472;7.850;2023-05-15T09:42:09;96296.75;;;17.72;98.31
32761;BME280;19126;47.472;7.850;2023-05-15T09:44:41;96295.13;;;17.71;93.89
32761;BME280;19126;47.472;7.850;2023-05-15T09:47:09;96287.28;;;17.34;92.63
32761;BME280;19126;47.472;7.850;2023-05-15T09:49:38;96290.06;;;17.08;91.38
32761;BME280;19126;47.472;7.850;2023-05-15T09:52:08;96291.75;;;16.84;91.75
32761;BME280;19126;47.472;7.850;2023-05-15T09:54:37;96294.78;;;16.69;91.81
32761;BME280;19126;47.472;7.850;2023-05-15T09:57:12;96291.84;;;16.77;92.59
32761;BME280;19126;47.472;7.850;2023-05-15T09:59:44;96292.84;;;16.95;93.91
32761;BME280;19126;47.472;7.850;2023-05-15T10:02:13;96285.91;;;16.94;97.51
32761;BME280;19126;47.472;7.850;2023-05-15T10:04:54;96290.56;;;16.98;95.10
32761;BME280;19126;47.472;7.850;2023-05-15T10:07:29;96289.38;;;16.76;94.84
32761;BME280;19126;47.472;7.850;2023-05-15T10:09:57;96292.31;;;16.86;99.34
32761;BME280;19126;47.472;7.850;2023-05-15T10:12:24;96287.31;;;16.96;99.86
32761;BME280;19126;47.472;7.850;2023-05-15T10:14:55;96286.13;;;17.11;100.00
32761;BME280;19126;47.472;7.850;2023-05-15T10:17:23;96283.28;;;17.12;100.00
32761;BME280;19126;47.472;7.850;2023-05-15T10:19:51;96277.72;;;17.14;100.00
32761;BME280;19126;47.472;7.850;2023-05-15T10:22:22;96277.00;;;17.25;98.62
32761;BME280;19126;47.472;7.850;2023-05-15T10:24:57;96274.91;;;17.82;98.63
32761;BME280;19126;47.472;7.850;2023-05-15T10:27:26;96271.38;;;18.59;100.00
32761;BME280;19126;47.472;7.850;2023-05-15T10:29:55;96274.16;;;18.65;85.15
32761;BME280;19126;47.472;7.850;2023-05-15T10:32:24;96271.91;;;18.85;86.65
32761;BME280;19126;47.472;7.850;2023-05-15T10:34:53;96264.81;;;19.03;82.36
32761;BME280;19126;47.472;7.850;2023-05-15T10:37:24;96263.50;;;19.17;84.14
32761;BME280;19126;47.472;7.850;2023-05-15T10:39:53;96261.78;;;19.11;81.99
32761;BME280;19126;47.472;7.850;2023-05-15T10:42:22;96249.41;;;19.05;84.49
32761;BME280;19126;47.472;7.850;2023-05-15T10:44:52;96253.78;;;19.11;80.59
32761;BME280;19126;47.472;7.850;2023-05-15T10:47:25;96241.81;;;19.26;87.83
32761;BME280;19126;47.472;7.850;2023-05-15T10:49:52;96246.22;;;19.66;86.18
32761;BME280;19126;47.472;7.850;2023-05-15T10:52:20;96245.81;;;19.74;79.42
32761;BME280;19126;47.472;7.850;2023-05-15T10:54:49;96241.47;;;20.19;84.89
32761;BME280;19126;47.472;7.850;2023-05-15T10:57:20;96233.09;;;20.33;77.59
32761;BME280;19126;47.472;7.850;2023-05-15T10:59:48;96228.34;;;20.18;75.75
32761;BME280;19126;47.472;7.850;2023-05-15T11:02:19;96226.66;;;19.60;75.09
32761;BME280;19126;47.472;7.850;2023-05-15T11:04:53;96221.66;;;19.81;77.68
32761;BME280;19126;47.472;7.850;2023-05-15T11:07:21;96226.44;;;19.96;76.48
32761;BME280;19126;47.472;7.850;2023-05-15T11:09:53;96222.38;;;19.59;75.36
32761;BME280;19126;47.472;7.850;2023-05-15T11:12:22;96222.47;;;19.47;76.86
32761;BME280;19126;47.472;7.850;2023-05-15T11:15:19;96224.16;;;19.88;75.94
32761;BME280;19126;47.472;7.850;2023-05-15T11:18:04;96213.91;;;19.80;70.80
32761;BME280;19126;47.472;7.850;2023-05-15T11:20:33;96219.22;;;19.45;72.46
32761;BME280;19126;47.472;7.850;2023-05-15T11:23:00;96214.44;;;19.13;72.85
32761;BME280;19126;47.472;7.850;2023-05-15T11:25:35;96208.50;;;18.41;74.86
32761;BME280;19126;47.472;7.850;2023-05-15T11:28:03;96204.50;;;18.68;76.95
32761;BME280;19126;47.472;7.850;2023-05-15T11:30:37;96207.78;;;18.87;75.92
32761;BME280;19126;47.472;7.850;2023-05-15T11:33:06;96205.19;;;18.63;77.07
32761;BME280;19126;47.472;7.850;2023-05-15T11:35:39;96203.59;;;18.91;72.79
32761;BME280;19126;47.472;7.850;2023-05-15T11:38:13;96207.94;;;19.55;76.61
32761;BME280;19126;47.472;7.850;2023-05-15T11:40:47;96203.31;;;20.19;78.98
32761;BME280;19126;47.472;7.850;2023-05-15T11:43:19;96198.22;;;20.40;69.83
32761;BME280;19126;47.472;7.850;2023-05-15T11:45:50;96196.31;;;19.96;71.37
32761;BME280;19126;47.472;7.850;2023-05-15T11:48:18;96201.47;;;20.42;66.00
32761;BME280;19126;47.472;7.850;2023-05-15T11:50:46;96199.31;;;20.61;63.83
32761;BME280;19126;47.472;7.850;2023-05-15T11:53:14;96195.88;;;20.88;63.50
32761;BME280;19126;47.472;7.850;2023-05-15T11:55:44;96189.94;;;20.81;65.41
32761;BME280;19126;47.472;7.850;2023-05-15T11:58:14;96181.69;;;20.60;58.75
32761;BME280;19126;47.472;7.850;2023-05-15T12:00:43;96178.63;;;20.73;67.64
32761;BME280;19126;47.472;7.850;2023-05-15T12:03:15;96173.69;;;21.10;66.28
32761;BME280;19126;47.472;7.850;2023-05-15T12:05:42;96179.56;;;21.39;66.57
32761;BME280;19126;47.472;7.850;2023-05-15T12:08:10;96177.47;;;21.79;65.81
32761;BME280;19126;47.472;7.850;2023-05-15T12:10:41;96175.16;;;21.93;59.57
32761;BME280;19126;47.472;7.850;2023-05-15T12:13:11;96172.09;;;22.17;57.17
32761;BME280;19126;47.472;7.850;2023-05-15T12:15:41;96173.34;;;22.57;59.34
32761;BME280;19126;47.472;7.850;2023-05-15T12:18:09;96176.59;;;22.64;56.30
32761;BME280;19126;47.472;7.850;2023-05-15T12:20:39;96172.59;;;22.62;59.61
32761;BME280;19126;47.472;7.850;2023-05-15T12:23:09;96182.25;;;22.20;60.79
32761;BME280;19126;47.472;7.850;2023-05-15T12:25:37;96174.84;;;21.51;62.55
32761;BME280;19126;47.472;7.850;2023-05-15T12:28:04;96176.25;;;20.99;64.17
32761;BME280;19126;47.472;7.850;2023-05-15T12:30:34;96166.78;;;20.64;67.46
32761;BME280;19126;47.472;7.850;2023-05-15T12:33:05;96164.03;;;20.37;70.75
32761;BME280;19126;47.472;7.850;2023-05-15T12:35:33;96180.16;;;20.02;75.57
32761;BME280;19126;47.472;7.850;2023-05-15T12:38:02;96176.66;;;19.85;77.66
32761;BME280;19126;47.472;7.850;2023-05-15T12:40:33;96172.41;;;19.67;77.13
32761;BME280;19126;47.472;7.850;2023-05-15T12:43:05;96178.63;;;19.55;75.82
32761;BME280;19126;47.472;7.850;2023-05-15T12:45:36;96174.75;;;19.63;74.00
32761;BME280;19126;47.472;7.850;2023-05-15T12:48:05;96175.22;;;19.77;72.75
32761;BME280;19126;47.472;7.850;2023-05-15T12:50:34;96172.56;;;19.60;67.21
32761;BME280;19126;47.472;7.850;2023-05-15T12:53:03;96172.09;;;19.63;70.29
32761;BME280;19126;47.472;7.850;2023-05-15T12:55:36;96170.94;;;19.76;70.34
32761;BME280;19126;47.472;7.850;2023-05-15T12:58:08;96171.66;;;19.88;67.17
32761;BME280;19126;47.472;7.850;2023-05-15T13:00:40;96173.19;;;19.84;61.75
32761;BME280;19126;47.472;7.850;2023-05-15T13:03:11;96170.16;;;19.41;62.55
32761;BME280;19126;47.472;7.850;2023-05-15T13:05:42;96169.44;;;19.29;67.93
32761;BME280;19126;47.472;7.850;2023-05-15T13:08:14;96171.25;;;19.11;69.01
32761;BME280;19126;47.472;7.850;2023-05-15T13:10:42;96170.03;;;19.02;74.06
32761;BME280;19126;47.472;7.850;2023-05-15T13:13:10;96168.25;;;19.08;75.91
32761;BME280;19126;47.472;7.850;2023-05-15T13:15:42;96167.63;;;18.88;74.88
32761;BME280;19126;47.472;7.850;2023-05-15T13:18:14;96167.94;;;18.75;74.13